createdAt,value
2019-05-26T00:02:13.779Z,12.66
2019-05-26T00:04:42.201Z,12.66
2019-05-26T00:07:10.602Z,12.66
2019-05-26T00:09:39.418Z,12.66
2019-05-26T00:12:07.793Z,12.61
2019-05-26T00:14:37.716Z,12.55
2019-05-26T00:17:06.108Z,12.46
2019-05-26T00:19:34.519Z,12.37
2019-05-26T00:22:02.890Z,12.27
2019-05-26T00:24:31.304Z,12.19
2019-05-26T00:26:59.697Z,12.13
2019-05-26T00:29:28.074Z,12.05
2019-05-26T00:31:56.677Z,11.96
2019-05-26T00:34:25.055Z,11.88
2019-05-26T00:36:53.534Z,11.83
2019-05-26T00:39:22.013Z,11.76
2019-05-26T00:41:50.419Z,11.70
2019-05-26T00:44:20.663Z,11.65
2019-05-26T00:46:49.260Z,11.60
2019-05-26T00:49:17.654Z,11.57
2019-05-26T00:51:46.194Z,11.53
2019-05-26T00:54:14.661Z,11.50
2019-05-26T00:56:43.258Z,11.48
2019-05-26T00:59:11.654Z,11.46
2019-05-26T01:01:40.094Z,11.46
2019-05-26T01:04:08.614Z,11.44
2019-05-26T01:06:37.014Z,11.42
2019-05-26T01:09:07.619Z,11.39
2019-05-26T01:11:36.230Z,11.37
2019-05-26T01:14:04.970Z,11.33
2019-05-26T01:16:34.916Z,11.33
2019-05-26T01:19:04.568Z,11.30
2019-05-26T01:21:32.983Z,11.10
2019-05-26T01:24:01.368Z,11.23
2019-05-26T01:26:29.781Z,11.19
2019-05-26T01:28:58.181Z,11.15
2019-05-26T01:31:26.595Z,11.11
2019-05-26T01:33:54.984Z,11.05
2019-05-26T01:36:23.447Z,11.03
2019-05-26T01:38:53.494Z,11.00
2019-05-26T01:41:21.882Z,10.97
2019-05-26T01:43:50.363Z,10.96
2019-05-26T01:46:18.707Z,10.92
2019-05-26T01:48:47.128Z,10.86
2019-05-26T01:51:15.517Z,10.71
2019-05-26T01:53:43.949Z,10.74
2019-05-26T01:56:12.338Z,10.69
2019-05-26T01:58:40.854Z,10.64
2019-05-26T02:01:11.332Z,10.62
2019-05-26T02:03:39.443Z,10.63
2019-05-26T02:06:07.839Z,10.64
2019-05-26T02:08:39.777Z,10.58
2019-05-26T02:11:07.880Z,10.53
2019-05-26T02:13:36.286Z,10.46
2019-05-26T02:16:05.156Z,10.41
2019-05-26T02:18:33.579Z,10.38
2019-05-26T02:21:02.089Z,10.35
2019-05-26T02:23:32.086Z,10.33
2019-05-26T02:26:00.542Z,10.31
2019-05-26T02:28:28.947Z,10.27
2019-05-26T02:30:58.881Z,10.26
2019-05-26T02:33:28.817Z,10.24
2019-05-26T02:35:57.485Z,10.21
2019-05-26T02:38:26.656Z,10.18
2019-05-26T02:40:55.491Z,10.14
2019-05-26T02:43:23.896Z,10.08
2019-05-26T02:45:52.366Z,10.03
2019-05-26T02:48:20.773Z,9.98
2019-05-26T02:50:49.489Z,9.92
2019-05-26T02:53:24.402Z,9.90
2019-05-26T02:55:49.576Z,9.88
2019-05-26T02:58:18.288Z,9.84
2019-05-26T03:00:47.822Z,9.81
2019-05-26T03:03:16.955Z,9.80
2019-05-26T03:05:47.002Z,9.81
2019-05-26T03:08:16.527Z,9.79
2019-05-26T03:10:45.447Z,9.76
2019-05-26T03:13:15.494Z,9.75
2019-05-26T03:15:45.747Z,9.73
2019-05-26T03:18:14.303Z,9.72
2019-05-26T03:20:43.756Z,9.76
2019-05-26T03:23:12.321Z,9.79
2019-05-26T03:25:40.786Z,9.79
2019-05-26T03:28:09.242Z,9.75
2019-05-26T03:30:38.184Z,9.72
2019-05-26T03:33:06.856Z,9.69
2019-05-26T03:35:35.344Z,9.73
2019-05-26T03:38:04.652Z,9.74
2019-05-26T03:40:33.063Z,9.55
2019-05-26T03:43:01.610Z,9.70
2019-05-26T03:45:35.672Z,9.68
2019-05-26T03:48:04.541Z,9.67
2019-05-26T03:50:32.928Z,9.47
2019-05-26T03:53:01.430Z,9.66
2019-05-26T03:55:29.843Z,9.66
2019-05-26T03:57:58.228Z,9.67
2019-05-26T04:00:26.778Z,9.69
2019-05-26T04:02:55.232Z,9.73
2019-05-26T04:05:23.790Z,9.73
2019-05-26T04:07:52.195Z,9.77
2019-05-26T04:10:20.584Z,9.83
2019-05-26T04:12:48.978Z,9.85
2019-05-26T04:15:17.367Z,9.90
2019-05-26T04:17:45.777Z,9.94
2019-05-26T04:20:15.035Z,9.99
2019-05-26T04:22:43.446Z,9.97
2019-05-26T04:25:11.925Z,10.13
2019-05-26T04:27:40.702Z,10.22
2019-05-26T04:30:10.960Z,10.29
2019-05-26T04:32:39.372Z,10.37
2019-05-26T04:35:07.831Z,10.47
2019-05-26T04:37:36.253Z,10.54
2019-05-26T04:40:25.067Z,10.60
2019-05-26T04:42:37.851Z,10.68
2019-05-26T04:45:10.563Z,10.77
2019-05-26T04:47:39.126Z,10.84
2019-05-26T04:50:07.975Z,10.94
2019-05-26T04:52:36.425Z,11.00
2019-05-26T04:55:09.131Z,11.10
2019-05-26T04:57:37.560Z,11.21
2019-05-26T05:00:08.387Z,11.29
2019-05-26T05:02:38.406Z,11.40
2019-05-26T05:05:10.084Z,11.51
2019-05-26T05:07:38.641Z,11.65
2019-05-26T05:10:07.862Z,11.75
2019-05-26T05:12:36.527Z,11.85
2019-05-26T05:15:08.801Z,11.95
2019-05-26T05:17:37.316Z,12.05
2019-05-26T05:20:09.123Z,12.16
2019-05-26T05:22:37.851Z,12.26
2019-05-26T05:25:14.697Z,12.38
2019-05-26T05:27:39.586Z,12.50
2019-05-26T05:30:09.264Z,12.64
2019-05-26T05:32:38.198Z,12.80
2019-05-26T05:35:08.572Z,12.91
2019-05-26T05:37:37.097Z,13.06
2019-05-26T05:40:09.570Z,13.25
2019-05-26T05:42:38.290Z,13.25
2019-05-26T05:45:09.074Z,13.45
2019-05-26T05:47:37.551Z,13.58
2019-05-26T05:50:10.717Z,13.71
2019-05-26T05:52:39.109Z,13.79
2019-05-26T05:55:08.391Z,13.89
2019-05-26T05:57:36.855Z,14.03
2019-05-26T06:00:10.284Z,14.04
2019-05-26T06:02:38.699Z,14.18
2019-05-26T06:05:08.376Z,14.35
2019-05-26T06:07:38.521Z,14.47
2019-05-26T06:10:10.584Z,14.59
2019-05-26T06:12:40.549Z,14.72
2019-05-26T06:15:10.711Z,14.81
2019-05-26T06:17:39.152Z,14.93
2019-05-26T06:20:09.713Z,15.01
2019-05-26T06:22:38.194Z,15.12
2019-05-26T06:25:07.445Z,15.30
2019-05-26T06:27:35.877Z,15.46
2019-05-26T06:30:06.423Z,15.60
2019-05-26T06:32:34.827Z,15.72
2019-05-26T06:35:03.262Z,15.88
2019-05-26T06:37:31.663Z,15.98
2019-05-26T06:40:00.182Z,16.15
2019-05-26T06:42:28.608Z,16.33
2019-05-26T06:44:57.149Z,16.43
2019-05-26T06:47:25.555Z,16.54
2019-05-26T06:49:53.963Z,16.42
2019-05-26T06:52:22.369Z,16.55
2019-05-26T06:54:50.762Z,16.79
2019-05-26T06:57:19.269Z,16.88
2019-05-26T06:59:47.654Z,17.08
2019-05-26T07:02:16.130Z,17.25
2019-05-26T07:04:44.562Z,17.40
2019-05-26T07:07:12.997Z,17.66
2019-05-26T07:09:41.554Z,17.97
2019-05-26T07:12:09.913Z,18.29
2019-05-26T07:14:38.453Z,18.55
2019-05-26T07:17:08.387Z,18.82
2019-05-26T07:19:36.859Z,18.82
2019-05-26T07:22:06.858Z,18.94
2019-05-26T07:24:35.365Z,19.06
2019-05-26T07:27:04.663Z,19.19
2019-05-26T07:29:33.039Z,19.43
2019-05-26T07:32:01.599Z,19.64
2019-05-26T07:34:30.042Z,19.51
2019-05-26T07:36:58.943Z,19.44
2019-05-26T07:39:27.787Z,19.54
2019-05-26T07:42:09.446Z,19.76
2019-05-26T07:44:26.327Z,19.90
2019-05-26T07:46:54.838Z,19.96
2019-05-26T07:49:23.333Z,20.02
2019-05-26T07:51:53.334Z,20.17
2019-05-26T07:54:25.577Z,20.24
2019-05-26T07:56:53.384Z,20.47
2019-05-26T07:59:24.109Z,20.72
2019-05-26T08:01:52.633Z,20.86
2019-05-26T08:04:21.058Z,20.72
2019-05-26T08:06:49.494Z,20.72
2019-05-26T08:09:17.890Z,20.76
2019-05-26T08:11:46.621Z,20.63
2019-05-26T08:14:15.025Z,20.54
2019-05-26T08:16:43.422Z,20.49
2019-05-26T08:19:11.916Z,20.40
2019-05-26T08:21:40.552Z,20.65
2019-05-26T08:24:08.987Z,21.00
2019-05-26T08:26:37.368Z,21.29
2019-05-26T08:29:05.846Z,21.25
2019-05-26T08:31:34.249Z,21.29
2019-05-26T08:34:02.847Z,21.56
2019-05-26T08:36:31.380Z,21.73
2019-05-26T08:38:59.802Z,21.98
2019-05-26T08:41:28.237Z,22.06
2019-05-26T08:43:56.830Z,22.20
2019-05-26T08:46:25.340Z,22.25
2019-05-26T08:48:53.776Z,22.13
2019-05-26T08:51:22.472Z,22.22
2019-05-26T08:53:51.037Z,22.40
2019-05-26T08:56:19.444Z,22.62
2019-05-26T08:58:48.094Z,22.51
2019-05-26T09:01:16.489Z,22.55
2019-05-26T09:03:46.413Z,22.65
2019-05-26T09:06:14.919Z,22.71
2019-05-26T09:08:43.335Z,22.64
2019-05-26T09:11:11.808Z,22.85
2019-05-26T09:13:40.212Z,23.05
2019-05-26T09:16:08.623Z,23.05
2019-05-26T09:18:37.027Z,23.37
2019-05-26T09:21:05.418Z,23.37
2019-05-26T09:23:33.823Z,23.48
2019-05-26T09:26:02.239Z,23.48
2019-05-26T09:28:30.693Z,23.95
2019-05-26T09:30:59.210Z,23.94
2019-05-26T09:33:27.597Z,23.75
2019-05-26T09:35:56.014Z,23.86
2019-05-26T09:38:24.412Z,23.85
2019-05-26T09:40:52.960Z,24.06
2019-05-26T09:43:21.573Z,24.32
2019-05-26T09:45:51.533Z,24.39
2019-05-26T09:48:20.000Z,24.70
2019-05-26T09:50:49.080Z,24.48
2019-05-26T09:53:17.479Z,24.28
2019-05-26T09:55:45.887Z,24.31
2019-05-26T09:58:14.368Z,24.69
2019-05-26T10:00:44.316Z,24.38
2019-05-26T10:03:13.359Z,24.71
2019-05-26T10:05:42.425Z,25.09
2019-05-26T10:08:10.940Z,25.28
2019-05-26T10:10:39.358Z,25.14
2019-05-26T10:13:07.742Z,25.12
2019-05-26T10:15:36.206Z,25.16
2019-05-26T10:18:06.171Z,25.47
2019-05-26T10:20:34.591Z,25.46
2019-05-26T10:23:03.197Z,25.61
2019-05-26T10:25:31.601Z,25.87
2019-05-26T10:28:00.124Z,26.03
2019-05-26T10:30:28.536Z,26.06
2019-05-26T10:32:56.984Z,25.84
2019-05-26T10:35:25.579Z,25.39
2019-05-26T10:37:53.967Z,24.94
2019-05-26T10:40:22.549Z,24.96
2019-05-26T10:42:51.030Z,25.22
2019-05-26T10:45:20.131Z,25.38
2019-05-26T10:47:48.653Z,25.51
2019-05-26T10:50:17.397Z,25.16
2019-05-26T10:52:46.038Z,25.14
2019-05-26T10:55:14.727Z,24.97
2019-05-26T10:57:43.166Z,25.07
2019-05-26T11:00:13.880Z,24.67
2019-05-26T11:02:42.296Z,24.48
2019-05-26T11:05:10.890Z,24.44
2019-05-26T11:07:39.292Z,24.71
2019-05-26T11:10:08.318Z,24.87
2019-05-26T11:12:36.844Z,24.83
2019-05-26T11:15:09.701Z,24.77
2019-05-26T11:17:38.257Z,24.76
2019-05-26T11:20:12.193Z,24.88
2019-05-26T11:22:40.639Z,24.84
2019-05-26T11:25:11.491Z,25.24
2019-05-26T11:27:39.909Z,25.29
2019-05-26T11:30:10.824Z,25.18
2019-05-26T11:32:40.808Z,25.29
2019-05-26T11:35:10.167Z,25.57
2019-05-26T11:37:42.951Z,25.51
2019-05-26T11:40:13.106Z,24.97
2019-05-26T11:42:44.607Z,25.38
2019-05-26T11:45:12.051Z,25.54
2019-05-26T11:47:40.575Z,24.92
2019-05-26T11:50:09.500Z,25.16
2019-05-26T11:52:38.177Z,25.36
2019-05-26T11:55:09.909Z,25.64
2019-05-26T11:57:38.513Z,25.72
2019-05-26T12:00:16.339Z,25.72
2019-05-26T12:02:46.036Z,25.33
2019-05-26T12:05:17.643Z,25.38
2019-05-26T12:07:45.860Z,25.52
2019-05-26T12:10:14.890Z,26.05
2019-05-26T12:12:44.853Z,26.06
2019-05-26T12:15:15.506Z,25.92
2019-05-26T12:17:44.069Z,26.16
2019-05-26T12:20:12.661Z,26.51
2019-05-26T12:22:41.143Z,26.79
2019-05-26T12:25:10.207Z,26.98
2019-05-26T12:27:38.644Z,26.88
2019-05-26T12:30:10.168Z,26.95
2019-05-26T12:32:38.742Z,27.11
2019-05-26T12:35:10.998Z,26.90
2019-05-26T12:37:40.567Z,26.88
2019-05-26T12:40:10.932Z,26.92
2019-05-26T12:42:39.419Z,26.96
2019-05-26T12:45:09.870Z,26.98
2019-05-26T12:47:38.701Z,27.07
2019-05-26T12:50:09.667Z,26.62
2019-05-26T12:52:38.144Z,26.67
2019-05-26T12:55:09.279Z,26.50
2019-05-26T12:57:38.006Z,25.95
2019-05-26T13:00:10.525Z,25.41
2019-05-26T13:02:38.942Z,25.67
2019-05-26T13:05:08.676Z,26.12
2019-05-26T13:07:37.232Z,26.46
2019-05-26T13:10:09.396Z,26.47
2019-05-26T13:12:42.268Z,26.63
2019-05-26T13:15:12.728Z,26.74
2019-05-26T13:17:41.128Z,26.85
2019-05-26T13:20:10.665Z,26.92
2019-05-26T13:22:40.587Z,26.81
2019-05-26T13:25:11.299Z,26.84
2019-05-26T13:27:39.769Z,26.75
2019-05-26T13:30:11.249Z,26.60
2019-05-26T13:32:39.640Z,26.52
2019-05-26T13:35:09.265Z,26.57
2019-05-26T13:37:37.734Z,26.49
2019-05-26T13:40:07.994Z,26.52
2019-05-26T13:42:37.064Z,26.56
2019-05-26T13:45:21.880Z,26.21
2019-05-26T13:47:40.355Z,26.29
2019-05-26T13:50:09.815Z,26.32
2019-05-26T13:52:38.226Z,26.33
2019-05-26T13:55:08.940Z,26.18
2019-05-26T13:57:37.350Z,26.19
2019-05-26T14:00:08.755Z,26.28
2019-05-26T14:02:37.317Z,26.32
2019-05-26T14:05:08.903Z,26.52
2019-05-26T14:07:37.353Z,26.49
2019-05-26T14:10:08.226Z,26.50
2019-05-26T14:12:36.716Z,26.66
2019-05-26T14:15:09.748Z,26.58
2019-05-26T14:17:42.894Z,26.73
2019-05-26T14:20:13.125Z,26.56
2019-05-26T14:22:41.542Z,26.55
2019-05-26T14:25:10.287Z,26.42
2019-05-26T14:27:38.691Z,26.39
2019-05-26T14:30:08.596Z,26.46
2019-05-26T14:32:37.066Z,26.50
2019-05-26T14:35:07.036Z,26.44
2019-05-26T14:37:35.589Z,26.38
2019-05-26T14:40:09.764Z,26.25
2019-05-26T14:42:38.841Z,26.27
2019-05-26T14:45:10.459Z,26.22
2019-05-26T14:47:38.890Z,26.11
2019-05-26T14:50:11.392Z,26.11
2019-05-26T14:52:39.814Z,25.86
2019-05-26T14:55:11.333Z,25.80
2019-05-26T14:57:40.023Z,25.89
2019-05-26T15:00:09.877Z,25.79
2019-05-26T15:02:38.468Z,25.83
2019-05-26T15:05:08.743Z,25.75
2019-05-26T15:07:37.152Z,25.57
2019-05-26T15:10:08.790Z,25.42
2019-05-26T15:12:37.182Z,25.16
2019-05-26T15:15:07.279Z,24.94
2019-05-26T15:17:35.843Z,24.73
2019-05-26T15:20:05.372Z,24.76
2019-05-26T15:22:34.080Z,24.82
2019-05-26T15:25:03.271Z,24.79
2019-05-26T15:27:33.292Z,24.78
2019-05-26T15:30:01.711Z,24.61
2019-05-26T15:32:30.111Z,24.52
2019-05-26T15:34:58.620Z,24.48
2019-05-26T15:37:27.326Z,24.45
2019-05-26T15:39:55.732Z,24.42
2019-05-26T15:42:24.131Z,24.41
2019-05-26T15:44:54.247Z,24.43
2019-05-26T15:47:22.718Z,24.38
2019-05-26T15:49:51.242Z,24.31
2019-05-26T15:52:19.874Z,24.33
2019-05-26T15:54:48.324Z,24.36
2019-05-26T15:57:16.696Z,24.29
2019-05-26T15:59:45.268Z,24.18
2019-05-26T16:02:13.954Z,24.11
2019-05-26T16:04:44.979Z,24.03
2019-05-26T16:07:12.592Z,23.99
2019-05-26T16:09:41.143Z,23.92
2019-05-26T16:12:09.528Z,23.91
2019-05-26T16:14:38.882Z,23.91
2019-05-26T16:17:07.357Z,23.89
2019-05-26T16:19:35.858Z,23.86
2019-05-26T16:22:05.761Z,23.77
2019-05-26T16:24:34.170Z,23.72
2019-05-26T16:27:18.162Z,23.64
2019-05-26T16:29:33.151Z,23.47
2019-05-26T16:32:01.904Z,23.41
2019-05-26T16:34:30.490Z,23.32
2019-05-26T16:36:58.918Z,23.18
2019-05-26T16:39:36.547Z,23.07
2019-05-26T16:41:57.439Z,22.96
2019-05-26T16:44:27.427Z,22.88
2019-05-26T16:46:57.025Z,22.76
2019-05-26T16:49:25.584Z,22.67
2019-05-26T16:51:53.982Z,22.59
2019-05-26T16:54:22.494Z,22.52
2019-05-26T16:56:52.201Z,22.45
2019-05-26T16:59:22.105Z,22.44
2019-05-26T17:01:50.589Z,22.43
2019-05-26T17:04:20.551Z,22.38
2019-05-26T17:06:48.997Z,22.32
2019-05-26T17:09:17.384Z,22.26
2019-05-26T17:11:48.927Z,22.23
2019-05-26T17:14:17.305Z,22.19
2019-05-26T17:16:45.719Z,22.13
2019-05-26T17:19:14.278Z,22.07
2019-05-26T17:21:42.679Z,22.01
2019-05-26T17:24:11.068Z,21.97
2019-05-26T17:26:39.509Z,21.92
2019-05-26T17:29:07.889Z,21.87
2019-05-26T17:31:36.457Z,21.81
2019-05-26T17:34:04.927Z,21.78
2019-05-26T17:36:33.380Z,21.70
2019-05-26T17:39:01.951Z,21.64
2019-05-26T17:41:30.475Z,21.35
2019-05-26T17:43:58.959Z,21.47
2019-05-26T17:46:27.394Z,21.37
2019-05-26T17:48:55.772Z,21.25
2019-05-26T17:51:24.333Z,21.19
2019-05-26T17:53:52.823Z,21.09
2019-05-26T17:56:21.529Z,20.98
2019-05-26T17:58:49.960Z,20.90
2019-05-26T18:01:19.903Z,20.79
2019-05-26T18:03:48.307Z,20.68
2019-05-26T18:06:16.800Z,20.59
2019-05-26T18:08:46.785Z,20.52
2019-05-26T18:11:15.210Z,20.43
2019-05-26T18:13:46.817Z,20.34
2019-05-26T18:16:15.596Z,20.23
2019-05-26T18:18:44.088Z,20.16
2019-05-26T18:21:13.995Z,20.07
2019-05-26T18:23:42.405Z,19.94
2019-05-26T18:26:10.904Z,19.80
2019-05-26T18:28:39.595Z,19.68
2019-05-26T18:31:08.008Z,19.57
2019-05-26T18:33:36.430Z,19.44
2019-05-26T18:36:04.827Z,19.30
2019-05-26T18:38:33.506Z,19.17
2019-05-26T18:41:01.938Z,19.03
2019-05-26T18:43:30.401Z,18.92
2019-05-26T18:45:58.796Z,18.81
2019-05-26T18:48:27.451Z,18.69
2019-05-26T18:50:55.761Z,18.59
2019-05-26T18:53:24.360Z,18.48
2019-05-26T18:55:52.745Z,18.36
2019-05-26T18:58:21.158Z,18.25
2019-05-26T19:00:49.825Z,18.15
2019-05-26T19:03:18.831Z,18.06
2019-05-26T19:05:47.244Z,17.95
2019-05-26T19:08:15.731Z,17.86
2019-05-26T19:10:44.222Z,17.74
2019-05-26T19:13:12.715Z,17.66
2019-05-26T19:15:41.117Z,17.56
2019-05-26T19:18:19.491Z,17.48
2019-05-26T19:20:39.676Z,17.39
2019-05-26T19:23:08.136Z,17.28
2019-05-26T19:25:36.687Z,17.19
2019-05-26T19:28:05.346Z,17.11
2019-05-26T19:30:34.430Z,17.04
2019-05-26T19:33:02.807Z,16.97
2019-05-26T19:35:31.218Z,16.89
2019-05-26T19:37:59.617Z,16.79
2019-05-26T19:40:28.026Z,16.70
2019-05-26T19:42:56.424Z,16.62
2019-05-26T19:45:26.335Z,16.54
2019-05-26T19:47:56.237Z,16.46
2019-05-26T19:50:25.115Z,16.41
2019-05-26T19:52:53.593Z,16.34
2019-05-26T19:55:21.992Z,16.27
2019-05-26T19:57:50.451Z,16.20
2019-05-26T20:00:20.457Z,16.13
2019-05-26T20:02:48.908Z,16.04
2019-05-26T20:05:18.392Z,15.96
2019-05-26T20:07:46.776Z,15.89
2019-05-26T20:10:18.460Z,15.83
2019-05-26T20:12:46.991Z,15.78
2019-05-26T20:15:18.358Z,15.71
2019-05-26T20:17:46.733Z,15.64
2019-05-26T20:20:15.897Z,15.58
2019-05-26T20:22:44.302Z,15.53
2019-05-26T20:25:13.129Z,15.46
2019-05-26T20:27:41.504Z,15.40
2019-05-26T20:30:10.651Z,15.34
2019-05-26T20:32:39.057Z,15.32
2019-05-26T20:35:09.548Z,15.28
2019-05-26T20:37:37.925Z,15.25
2019-05-26T20:40:08.689Z,15.17
2019-05-26T20:42:37.160Z,15.11
2019-05-26T20:45:07.964Z,15.07
2019-05-26T20:47:36.461Z,15.04
2019-05-26T20:50:09.997Z,14.99
2019-05-26T20:52:38.428Z,14.95
2019-05-26T20:55:08.487Z,14.91
2019-05-26T20:57:36.862Z,14.87
2019-05-26T21:00:11.407Z,14.81
2019-05-26T21:02:40.759Z,14.78
2019-05-26T21:05:09.612Z,14.74
2019-05-26T21:07:38.055Z,14.72
2019-05-26T21:10:08.446Z,14.68
2019-05-26T21:12:36.956Z,14.66
2019-05-26T21:15:06.904Z,14.63
2019-05-26T21:17:35.592Z,14.59
2019-05-26T21:20:07.512Z,14.54
2019-05-26T21:22:35.894Z,14.31
2019-05-26T21:25:06.544Z,14.49
2019-05-26T21:27:34.918Z,14.33
2019-05-26T21:30:05.174Z,14.46
2019-05-26T21:32:33.667Z,14.43
2019-05-26T21:35:02.046Z,14.40
2019-05-26T21:37:30.657Z,14.37
2019-05-26T21:39:59.044Z,14.35
2019-05-26T21:42:27.459Z,14.32
2019-05-26T21:44:55.854Z,14.32
2019-05-26T21:47:24.293Z,14.30
2019-05-26T21:49:52.821Z,14.28
2019-05-26T21:52:21.289Z,14.26
2019-05-26T21:54:49.732Z,14.24
2019-05-26T21:57:18.132Z,14.22
2019-05-26T21:59:46.780Z,14.23
2019-05-26T22:02:16.447Z,14.23
2019-05-26T22:04:44.910Z,14.21
2019-05-26T22:07:13.311Z,14.20
2019-05-26T22:09:41.877Z,14.19
2019-05-26T22:12:10.249Z,14.19
2019-05-26T22:14:38.674Z,14.16
2019-05-26T22:17:07.101Z,14.13
2019-05-26T22:19:35.751Z,14.12
2019-05-26T22:22:07.035Z,14.12
2019-05-26T22:24:35.423Z,13.85
2019-05-26T22:27:04.975Z,14.01
2019-05-26T22:29:33.564Z,14.00
2019-05-26T22:32:01.982Z,13.96
2019-05-26T22:34:30.740Z,13.90
2019-05-26T22:37:00.675Z,13.82
2019-05-26T22:39:29.072Z,13.74
2019-05-26T22:41:57.507Z,13.65
2019-05-26T22:44:25.982Z,13.56
2019-05-26T22:46:54.381Z,13.49
2019-05-26T22:49:22.805Z,13.42
2019-05-26T22:51:51.224Z,13.37
2019-05-26T22:54:19.646Z,13.30
2019-05-26T22:56:48.151Z,13.24
2019-05-26T22:59:16.576Z,13.17
2019-05-26T23:01:46.512Z,13.10
2019-05-26T23:04:14.932Z,13.05
2019-05-26T23:06:44.847Z,13.00
2019-05-26T23:09:14.768Z,12.95
2019-05-26T23:11:43.172Z,12.90
2019-05-26T23:14:11.562Z,12.85
2019-05-26T23:16:40.038Z,12.81
2019-05-26T23:19:18.725Z,12.77
2019-05-26T23:21:38.559Z,12.83
2019-05-26T23:24:07.003Z,12.88
2019-05-26T23:26:35.553Z,12.87
2019-05-26T23:29:04.601Z,12.83
2019-05-26T23:31:33.362Z,12.60
2019-05-26T23:34:01.800Z,12.69
2019-05-26T23:36:30.201Z,12.63
2019-05-26T23:38:58.596Z,12.57
2019-05-26T23:41:27.049Z,12.52
2019-05-26T23:43:55.544Z,12.49
2019-05-26T23:46:23.974Z,12.43
2019-05-26T23:48:52.392Z,12.40
2019-05-26T23:51:20.950Z,12.37
2019-05-26T23:53:49.353Z,12.33
2019-05-26T23:56:17.756Z,12.30
2019-05-26T23:58:46.147Z,12.28
